• Join FlightAware (Why Join?)
  • Login
  • US Flag 
02:47AM EDT


 

Airport Tracker/Info


-or-


 

Live Flight TrackerFlight Track Log ✈ SKW6492 ✈ 29-Apr-2013 ✈ KDEN - KCOD

Flight Track Log - Related Links

Times and Time Zones

All times are in EDT time to prevent confusion due to time zone crossing. See the SKW6492 flight status page for this flight to view local times or setup timezone preferences in your user account.

Time Position Orientation Groundspeed Altitude Reporting Facility
EDT Latitude Longitude Course Direction KTS MPH feet Rate Location/Type
09:39PM 40.0946 -104.8729 327° Northwest  Level Estimated
09:40PM 40.1722 -104.9398 327° Northwest  Level Estimated
09:41PM 40.2497 -105.0068 327° Northwest  Level Estimated
09:42PM 40.3272 -105.0740 327° Northwest  Level Estimated
09:43PM 40.4047 -105.1413 327° Northwest  Level Estimated
09:44PM 40.4821 -105.2088 326° Northwest  Level Estimated
09:45PM 40.5595 -105.2764 326° Northwest  Level Estimated
09:46PM 40.6368 -105.3442 326° Northwest  Level Estimated
09:47PM 40.7141 -105.4122 326° Northwest  Level Estimated
09:48PM 40.7914 -105.4803 326° Northwest  Level Estimated
09:49PM 40.8686 -105.5486 326° Northwest  Level Estimated
09:50PM 40.9458 -105.6170 326° Northwest  Level Estimated
09:51PM 41.0229 -105.6856 326° Northwest  Level Estimated
09:52PM 41.1000 -105.7544 326° Northwest  Level Estimated
09:53PM 41.1771 -105.8233 326° Northwest  Level Estimated
09:54PM 41.2541 -105.8924 326° Northwest  Level Estimated
09:55PM 41.3311 -105.9616 326° Northwest  Level Estimated
09:56PM 41.4080 -106.0311 326° Northwest  Level Estimated
09:57PM 41.4849 -106.1006 326° Northwest  Level Estimated
09:58PM 41.5618 -106.1704 326° Northwest  Level Estimated
09:59PM 41.6386 -106.2403 326° Northwest  Level Estimated
10:00PM 41.7153 -106.3103 326° Northwest  Level Estimated
10:01PM 41.7920 -106.3806 326° Northwest  Level Estimated
10:02PM 41.8687 -106.4510 326° Northwest  Level Estimated
10:03PM 41.9454 -106.5216 326° Northwest  Level Estimated
10:04PM 42.0220 -106.5923 326° Northwest  Level Estimated
10:05PM 42.0985 -106.6632 326° Northwest  Level Estimated
10:06PM 42.1750 -106.7343 325° Northwest  Level Estimated
10:07PM 42.2515 -106.8056 325° Northwest  Level Estimated
10:08PM 42.3279 -106.8770 325° Northwest  Level Estimated
10:09PM 42.4043 -106.9486 325° Northwest  Level Estimated
10:10PM 42.4806 -107.0204 325° Northwest  Level Estimated
10:11PM 42.5569 -107.0924 325° Northwest  Level Estimated
10:12PM 42.6331 -107.1645 325° Northwest  Level Estimated
10:13PM 42.7093 -107.2368 325° Northwest  Level Estimated
10:14PM 42.7855 -107.3093 325° Northwest  Level Estimated
10:15PM 42.8616 -107.3820 325° Northwest  Level Estimated
10:16PM 42.9376 -107.4548 325° Northwest  Level Estimated
10:17PM 43.0136 -107.5278 325° Northwest  Level Estimated
10:18PM 43.0896 -107.6010 325° Northwest  Level Estimated
10:19PM 43.1655 -107.6744 325° Northwest  Level Estimated
10:20PM 43.2414 -107.7480 325° Northwest  Level Estimated
10:21PM 43.3172 -107.8217 325° Northwest  Level Estimated
10:22PM 43.3930 -107.8957 325° Northwest  Level Estimated
10:23PM 43.4687 -107.9698 325° Northwest  Level Estimated
10:24PM 43.5444 -108.0441 325° Northwest  Level Estimated
10:25PM 43.6200 -108.1186 325° Northwest  Level Estimated
10:26PM 43.6956 -108.1933 324° Northwest  Level Estimated
10:27PM 43.7711 -108.2682 324° Northwest  Level Estimated
10:28PM 43.8466 -108.3432 324° Northwest  Level Estimated
10:29PM 43.9220 -108.4185 324° Northwest  Level Estimated
10:30PM 43.9974 -108.4939 324° Northwest  Level Estimated
10:31PM 44.0728 -108.5695 324° Northwest  Level Estimated
10:32PM 44.1480 -108.6454 324° Northwest  Level Estimated
10:33PM 44.2233 -108.7214 324° Northwest  Level Estimated
10:34PM 44.2985 -108.7976 324° Northwest  Level Estimated
10:35PM 44.3736 -108.8740 324° Northwest  Level Estimated
10:36PM 44.4487 -108.9506 324° Northwest  Level Estimated
10:37PM 44.5202 -109.0238 324° Northwest  Level Estimated
10:38PM 44.5202 -109.0238 35° Northeast  Level Estimated
10:39PM 44.5202 -109.0238 35° Northeast  Level Estimated
10:40PM 44.5202 -109.0238 35° Northeast  Level Estimated
10:41PM 44.5202 -109.0238 35° Northeast  Level Estimated
10:42PM 44.5202 -109.0238 35° Northeast  Level Estimated
10:43PM 44.5202 -109.0238 35° Northeast  Level Estimated
10:44PM 44.5202 -109.0238 35° Northeast  Level Estimated
10:45PM 44.5202 -109.0238 35° Northeast  Level Estimated